createdAt,value
2022-08-22T00:02:33.586Z,8.90
2022-08-22T00:03:01.248Z,7.38
2022-08-22T00:03:12.644Z,6.75
2022-08-22T00:08:19.767Z,8.85
2022-08-22T00:14:06.615Z,8.70
2022-08-22T00:19:43.675Z,8.82
2022-08-22T00:25:32.781Z,11.98
2022-08-22T00:31:07.891Z,8.63
2022-08-22T00:36:39.427Z,8.27
2022-08-22T00:42:29.335Z,8.63
2022-08-22T00:48:23.663Z,10.40
2022-08-22T00:54:16.772Z,10.25
2022-08-22T00:59:42.361Z,11.68
2022-08-22T01:05:17.773Z,14.15
2022-08-22T01:10:45.376Z,9.98
2022-08-22T01:16:31.093Z,11.02
2022-08-22T01:22:06.420Z,11.27
2022-08-22T01:27:59.589Z,8.93
2022-08-22T01:33:33.449Z,9.98
2022-08-22T01:39:04.115Z,11.63
2022-08-22T01:44:53.902Z,10.40
2022-08-22T01:50:25.065Z,10.98
2022-08-22T01:56:14.462Z,11.80
2022-08-22T02:01:44.517Z,12.23
2022-08-22T02:07:50.923Z,11.88
2022-08-22T02:13:12.670Z,11.10
2022-08-22T02:18:50.191Z,10.52
2022-08-22T02:24:27.912Z,11.48
2022-08-22T02:30:06.147Z,11.55
2022-08-22T02:35:46.878Z,10.07
2022-08-22T02:41:49.660Z,11.88
2022-08-22T02:47:38.708Z,11.27
2022-08-22T02:53:15.427Z,10.05
2022-08-22T02:58:48.816Z,10.50
2022-08-22T03:04:24.717Z,11.35
2022-08-22T03:09:58.000Z,10.07
2022-08-22T03:15:19.782Z,9.90
2022-08-22T03:20:45.755Z,12.15
2022-08-22T03:26:15.511Z,12.03
2022-08-22T03:31:38.052Z,11.15
2022-08-22T03:37:22.894Z,15.15
2022-08-22T03:43:03.643Z,10.10
2022-08-22T03:48:34.663Z,9.90
2022-08-22T03:54:39.641Z,14.38
2022-08-22T04:00:27.517Z,14.57
2022-08-22T04:06:11.454Z,11.02
2022-08-22T04:11:52.720Z,13.73
2022-08-22T04:17:36.216Z,13.23
2022-08-22T04:23:36.218Z,13.15
2022-08-22T04:29:08.831Z,12.70
2022-08-22T04:34:37.720Z,15.35
2022-08-22T04:40:05.615Z,12.52
2022-08-22T04:45:36.754Z,12.30
2022-08-22T04:51:06.601Z,11.65
2022-08-22T04:56:59.467Z,15.32
2022-08-22T05:02:25.122Z,11.23
2022-08-22T05:07:52.904Z,13.33
2022-08-22T05:13:25.039Z,7.15
2022-08-22T05:18:52.053Z,11.63
2022-08-22T05:24:33.635Z,7.68
2022-08-22T05:30:05.649Z,6.93
2022-08-22T05:35:34.965Z,10.82
2022-08-22T05:41:05.300Z,11.98
2022-08-22T05:46:43.502Z,8.10
2022-08-22T05:52:26.294Z,11.82
2022-08-22T05:58:01.811Z,8.95
2022-08-22T06:03:30.362Z,7.72
2022-08-22T06:09:07.091Z,9.27
2022-08-22T06:14:54.514Z,10.55
2022-08-22T06:20:28.737Z,10.35
2022-08-22T06:25:54.263Z,8.77
2022-08-22T06:31:42.307Z,7.15
2022-08-22T06:37:08.267Z,7.88
2022-08-22T06:42:33.703Z,8.75
2022-08-22T06:48:07.829Z,7.53
2022-08-22T06:53:47.754Z,6.30
2022-08-22T06:59:15.578Z,6.03
2022-08-22T07:04:37.557Z,5.40
2022-08-22T07:10:00.362Z,7.32
2022-08-22T07:15:32.823Z,7.70
2022-08-22T07:20:58.072Z,10.52
2022-08-22T07:31:54.115Z,6.55
2022-08-22T07:37:53.574Z,7.37
2022-08-22T07:43:40.294Z,7.15
2022-08-22T07:49:20.057Z,9.30
2022-08-22T07:54:54.333Z,7.75
2022-08-22T08:00:19.652Z,7.15
2022-08-22T08:05:44.717Z,6.43
2022-08-22T08:11:09.735Z,9.93
2022-08-22T08:16:41.840Z,4.78
2022-08-22T08:22:04.046Z,7.45
2022-08-22T08:27:34.086Z,5.35
2022-08-22T08:33:25.528Z,5.15
2022-08-22T08:39:03.773Z,6.03
2022-08-22T08:44:48.314Z,6.77
2022-08-22T08:50:23.908Z,4.20
2022-08-22T08:55:57.891Z,5.97
2022-08-22T09:01:22.483Z,6.70
2022-08-22T09:07:29.725Z,7.38
2022-08-22T09:13:15.674Z,7.37
2022-08-22T09:18:50.731Z,8.32
2022-08-22T09:30:01.964Z,5.70
2022-08-22T09:35:45.140Z,6.35
2022-08-22T09:41:12.806Z,5.90
2022-08-22T09:46:55.067Z,6.63
2022-08-22T09:52:34.211Z,7.78
2022-08-22T09:58:11.349Z,6.45
2022-08-22T10:03:45.567Z,3.97
2022-08-22T10:09:25.216Z,10.13
2022-08-22T10:15:15.525Z,8.80
2022-08-22T10:21:01.293Z,5.93
2022-08-22T10:26:38.438Z,7.13
2022-08-22T10:32:13.946Z,7.00
2022-08-22T10:37:59.458Z,5.05
2022-08-22T10:43:56.576Z,7.43
2022-08-22T10:49:46.440Z,5.32
2022-08-22T10:55:24.488Z,8.25
2022-08-22T11:01:00.494Z,8.95
2022-08-22T11:07:09.260Z,10.68
2022-08-22T11:12:42.466Z,8.05
2022-08-22T11:18:41.652Z,7.43
2022-08-22T11:24:55.980Z,6.93
2022-08-22T11:30:25.840Z,8.90
2022-08-22T11:35:54.365Z,15.45
2022-08-22T11:41:30.907Z,8.57
2022-08-22T11:46:55.397Z,9.52
2022-08-22T11:52:24.313Z,10.63
2022-08-22T11:58:13.460Z,10.75
2022-08-22T12:03:58.217Z,7.78
2022-08-22T12:09:39.439Z,7.00
2022-08-22T12:15:18.791Z,8.73
2022-08-22T12:21:16.700Z,11.00
2022-08-22T12:27:12.653Z,8.95
2022-08-22T12:33:04.493Z,7.30
2022-08-22T12:39:01.967Z,11.38
2022-08-22T12:45:07.907Z,9.88
2022-08-22T12:50:50.446Z,7.25
2022-08-22T12:56:30.708Z,8.18
2022-08-22T13:01:56.576Z,8.23
2022-08-22T13:07:25.065Z,9.75
2022-08-22T13:12:51.419Z,9.05
2022-08-22T13:18:30.221Z,8.20
2022-08-22T13:23:55.350Z,9.25
2022-08-22T13:29:26.219Z,10.95
2022-08-22T13:34:53.498Z,9.32
2022-08-22T13:40:24.296Z,7.32
2022-08-22T13:45:54.340Z,8.57
2022-08-22T13:51:23.760Z,9.68
2022-08-22T13:56:57.766Z,9.85
2022-08-22T14:02:43.131Z,9.25
2022-08-22T14:08:23.294Z,17.00
2022-08-22T14:13:56.085Z,6.40
2022-08-22T14:19:53.037Z,9.18
2022-08-22T14:25:25.016Z,7.28
2022-08-22T14:31:02.589Z,13.02
2022-08-22T14:37:03.600Z,10.05
2022-08-22T14:42:38.706Z,10.25
2022-08-22T14:48:30.328Z,10.15
2022-08-22T14:54:09.405Z,10.40
2022-08-22T14:59:46.998Z,10.02
2022-08-22T15:05:19.689Z,10.15
2022-08-22T15:10:42.336Z,10.32
2022-08-22T15:16:17.191Z,8.10
2022-08-22T15:21:41.394Z,9.00
2022-08-22T15:27:06.887Z,9.63
2022-08-22T15:32:31.162Z,9.05
2022-08-22T15:38:06.594Z,10.57
2022-08-22T15:43:35.671Z,11.63
2022-08-22T15:49:11.033Z,7.70
2022-08-22T15:54:54.529Z,13.63
2022-08-22T16:00:43.405Z,12.70
2022-08-22T16:06:09.946Z,12.27
2022-08-22T16:11:37.946Z,10.65
2022-08-22T16:17:03.429Z,9.35
2022-08-22T16:22:54.097Z,9.85
2022-08-22T16:28:56.995Z,10.23
2022-08-22T16:34:33.838Z,11.13
2022-08-22T16:39:58.740Z,9.52
2022-08-22T16:45:35.461Z,10.80
2022-08-22T16:51:13.781Z,14.68
2022-08-22T16:57:10.819Z,11.43
2022-08-22T17:02:55.370Z,11.70
2022-08-22T17:08:38.993Z,6.82
2022-08-22T17:14:22.660Z,6.30
2022-08-22T17:20:18.242Z,10.13
2022-08-22T17:25:46.165Z,12.32
2022-08-22T17:31:30.886Z,9.55
2022-08-22T17:37:06.682Z,8.82
2022-08-22T17:42:40.811Z,9.18
2022-08-22T17:48:11.471Z,8.95
2022-08-22T17:53:44.682Z,9.25
2022-08-22T17:59:20.668Z,10.45
2022-08-22T18:04:47.593Z,11.25
2022-08-22T18:10:22.348Z,12.48
2022-08-22T18:15:58.736Z,12.40
2022-08-22T18:21:35.449Z,12.20
2022-08-22T18:27:05.939Z,8.98
2022-08-22T18:32:35.926Z,16.27
2022-08-22T18:38:19.718Z,11.43
2022-08-22T18:43:45.874Z,16.00
2022-08-22T18:49:19.202Z,13.30
2022-08-22T18:54:56.105Z,14.20
2022-08-22T19:00:22.843Z,13.75
2022-08-22T19:06:22.358Z,17.98
2022-08-22T19:12:07.229Z,13.90
2022-08-22T19:17:34.929Z,8.98
2022-08-22T19:23:33.719Z,14.70
2022-08-22T19:29:10.514Z,18.35
2022-08-22T19:34:47.720Z,14.02
2022-08-22T19:40:11.412Z,15.48
2022-08-22T19:45:39.592Z,16.35
2022-08-22T19:51:24.629Z,17.13
2022-08-22T19:57:15.778Z,17.70
2022-08-22T20:02:58.178Z,14.27
2022-08-22T20:08:40.327Z,11.52
2022-08-22T20:14:30.061Z,13.90
2022-08-22T20:25:47.870Z,15.82
2022-08-22T20:31:20.960Z,17.83
2022-08-22T20:36:45.632Z,15.43
2022-08-22T20:42:12.619Z,15.95
2022-08-22T20:47:40.953Z,14.40
2022-08-22T20:53:22.230Z,16.65
2022-08-22T20:58:44.049Z,21.08
2022-08-22T21:04:06.540Z,14.30
2022-08-22T21:09:29.022Z,15.32
2022-08-22T21:14:50.841Z,16.40
2022-08-22T21:20:21.262Z,17.85
2022-08-22T21:26:11.041Z,19.80
2022-08-22T21:31:44.372Z,20.33
2022-08-22T21:37:23.965Z,16.77
2022-08-22T21:43:04.017Z,15.77
2022-08-22T21:48:57.791Z,14.68
2022-08-22T21:54:33.794Z,21.67
2022-08-22T21:59:59.778Z,18.20
2022-08-22T22:10:45.611Z,19.92
2022-08-22T22:16:09.344Z,17.70
2022-08-22T22:21:31.135Z,18.17
2022-08-22T22:26:53.171Z,21.00
2022-08-22T22:32:15.064Z,20.85
2022-08-22T22:37:36.997Z,16.75
2022-08-22T22:43:03.852Z,25.33
2022-08-22T22:48:25.735Z,21.15
2022-08-22T22:53:48.574Z,20.35
2022-08-22T22:59:13.115Z,15.48
2022-08-22T23:04:38.186Z,24.42
2022-08-22T23:10:01.471Z,22.58
2022-08-22T23:15:24.388Z,20.23
2022-08-22T23:20:46.246Z,22.05
2022-08-22T23:26:08.765Z,20.88
2022-08-22T23:31:40.501Z,22.50
2022-08-22T23:37:06.413Z,29.73
2022-08-22T23:42:28.461Z,24.70
2022-08-22T23:47:50.289Z,27.90
2022-08-22T23:53:12.103Z,21.77
2022-08-22T23:58:34.043Z,23.50
